createdAt,value
2018-08-07T00:02:36.208Z,14.30
2018-08-07T00:05:05.923Z,14.20
2018-08-07T00:07:34.052Z,14.20
2018-08-07T00:10:02.006Z,14.20
2018-08-07T00:12:30.025Z,14.20
2018-08-07T00:14:58.266Z,14.10
2018-08-07T00:17:26.301Z,14.20
2018-08-07T00:19:54.569Z,14.20
2018-08-07T00:22:23.466Z,14.10
2018-08-07T00:24:51.796Z,14.10
2018-08-07T00:29:47.852Z,14.00
2018-08-07T00:32:16.154Z,14.00
2018-08-07T00:34:44.048Z,13.90
2018-08-07T00:37:12.083Z,13.90
2018-08-07T00:39:40.247Z,13.90
2018-08-07T00:42:08.503Z,13.90
2018-08-07T00:44:36.754Z,13.80
2018-08-07T00:47:05.124Z,13.80
2018-08-07T00:49:33.591Z,13.80
2018-08-07T00:52:01.973Z,13.70
2018-08-07T00:54:29.963Z,13.70
2018-08-07T00:56:58.267Z,13.70
2018-08-07T00:59:26.179Z,13.60
2018-08-07T01:01:54.256Z,13.60
2018-08-07T01:04:22.476Z,13.60
2018-08-07T01:06:50.762Z,13.60
2018-08-07T01:09:18.844Z,13.60
2018-08-07T01:11:46.861Z,13.60
2018-08-07T01:14:15.205Z,13.60
2018-08-07T01:16:43.709Z,13.60
2018-08-07T01:19:11.876Z,13.60
2018-08-07T01:21:40.321Z,13.60
2018-08-07T01:24:08.640Z,13.60
2018-08-07T01:26:37.869Z,13.50
2018-08-07T01:31:34.755Z,13.40
2018-08-07T01:34:02.869Z,13.30
2018-08-07T01:36:31.192Z,13.30
2018-08-07T01:38:59.237Z,13.30
2018-08-07T01:41:27.560Z,13.30
2018-08-07T01:43:55.882Z,13.30
2018-08-07T01:46:24.126Z,13.30
2018-08-07T01:48:52.355Z,13.20
2018-08-07T01:51:20.387Z,13.20
2018-08-07T01:53:48.808Z,13.30
2018-08-07T01:56:16.804Z,13.30
2018-08-07T01:58:44.656Z,13.30
2018-08-07T02:01:12.774Z,13.20
2018-08-07T02:03:40.986Z,13.20
2018-08-07T02:06:09.046Z,13.20
2018-08-07T02:08:37.390Z,13.10
2018-08-07T02:11:06.446Z,13.10
2018-08-07T02:13:34.357Z,13.10
2018-08-07T02:16:02.420Z,13.10
2018-08-07T02:18:30.337Z,13.00
2018-08-07T02:20:58.342Z,13.00
2018-08-07T02:23:27.050Z,13.10
2018-08-07T02:26:02.289Z,13.00
2018-08-07T02:28:31.020Z,13.00
2018-08-07T02:30:59.026Z,13.00
2018-08-07T02:33:27.049Z,13.00
2018-08-07T02:35:55.552Z,13.00
2018-08-07T02:38:23.650Z,13.00
2018-08-07T02:40:51.569Z,13.00
2018-08-07T02:43:19.581Z,12.90
2018-08-07T02:45:47.982Z,12.90
2018-08-07T02:48:16.039Z,12.90
2018-08-07T02:50:44.101Z,12.90
2018-08-07T02:53:12.184Z,12.90
2018-08-07T02:55:40.274Z,12.90
2018-08-07T03:03:04.131Z,12.90
2018-08-07T03:05:32.035Z,12.90
2018-08-07T03:08:00.210Z,12.90
2018-08-07T03:12:56.399Z,12.90
2018-08-07T03:15:24.607Z,12.90
2018-08-07T03:17:52.832Z,13.00
2018-08-07T03:20:21.095Z,13.00
2018-08-07T03:22:49.574Z,12.90
2018-08-07T03:25:18.004Z,12.90
2018-08-07T03:27:46.406Z,12.90
2018-08-07T03:30:16.030Z,12.90
2018-08-07T03:32:44.380Z,12.90
2018-08-07T03:35:12.262Z,12.90
2018-08-07T03:37:41.004Z,12.90
2018-08-07T03:40:12.339Z,12.90
2018-08-07T03:42:40.931Z,12.90
2018-08-07T03:45:10.548Z,13.00
2018-08-07T03:47:38.708Z,12.90
2018-08-07T03:50:07.440Z,12.90
2018-08-07T03:52:35.293Z,12.90
2018-08-07T03:55:04.080Z,12.90
2018-08-07T03:57:31.901Z,13.00
2018-08-07T03:59:59.922Z,13.00
2018-08-07T04:02:28.361Z,13.00
2018-08-07T04:04:56.566Z,13.00
2018-08-07T04:07:24.789Z,13.00
2018-08-07T04:09:52.759Z,13.00
2018-08-07T04:12:20.672Z,12.90
2018-08-07T04:14:48.690Z,13.00
2018-08-07T04:17:16.810Z,13.00
2018-08-07T04:19:44.606Z,13.00
2018-08-07T04:24:40.452Z,13.10
2018-08-07T04:27:08.648Z,13.10
2018-08-07T04:29:36.685Z,13.10
2018-08-07T04:32:04.487Z,13.20
2018-08-07T04:34:32.361Z,13.20
2018-08-07T04:37:00.257Z,13.20
2018-08-07T04:39:28.179Z,13.30
2018-08-07T04:41:56.132Z,13.40
2018-08-07T04:44:24.157Z,13.40
2018-08-07T04:46:52.150Z,13.40
2018-08-07T04:51:48.032Z,13.60
2018-08-07T04:54:16.295Z,13.70
2018-08-07T04:56:44.825Z,13.70
2018-08-07T04:59:12.850Z,13.80
2018-08-07T05:01:40.951Z,13.90
2018-08-07T05:04:09.305Z,13.90
2018-08-07T05:06:37.741Z,14.00
2018-08-07T05:09:07.254Z,14.10
2018-08-07T05:14:04.439Z,14.30
2018-08-07T05:21:28.281Z,14.60
2018-08-07T05:23:56.738Z,14.60
2018-08-07T05:26:25.025Z,14.70
2018-08-07T05:28:53.138Z,14.90
2018-08-07T05:33:48.811Z,15.10
2018-08-07T05:36:16.954Z,15.20
2018-08-07T05:38:45.109Z,15.30
2018-08-07T05:41:12.975Z,15.50
2018-08-07T05:43:41.362Z,15.80
2018-08-07T05:46:10.118Z,16.10
2018-08-07T05:48:38.073Z,16.30
2018-08-07T05:51:07.195Z,16.40
2018-08-07T05:53:34.589Z,16.50
2018-08-07T05:56:02.463Z,16.80
2018-08-07T05:58:30.485Z,17.10
2018-08-07T06:00:58.644Z,17.30
2018-08-07T06:03:26.883Z,17.50
2018-08-07T06:05:54.728Z,17.90
2018-08-07T06:10:50.492Z,18.70
2018-08-07T06:13:18.453Z,19.50
2018-08-07T06:15:46.398Z,20.30
2018-08-07T06:18:14.589Z,21.40
2018-08-07T06:20:42.951Z,22.60
2018-08-07T06:23:11.174Z,23.90
2018-08-07T06:25:39.216Z,25.00
2018-08-07T06:28:07.335Z,26.00
2018-08-07T06:30:35.560Z,27.00
2018-08-07T06:33:03.996Z,27.80
2018-08-07T06:35:32.340Z,28.60
2018-08-07T06:38:00.468Z,29.30
2018-08-07T06:40:28.693Z,29.80
2018-08-07T06:42:56.824Z,30.20
2018-08-07T06:45:24.593Z,30.50
2018-08-07T06:47:52.609Z,30.70
2018-08-07T06:50:20.872Z,31.00
2018-08-07T06:52:49.861Z,31.30
2018-08-07T06:55:18.113Z,31.60
2018-08-07T06:57:46.563Z,31.90
2018-08-07T07:00:17.585Z,32.20
2018-08-07T07:02:46.069Z,32.60
2018-08-07T07:05:14.566Z,32.80
2018-08-07T07:07:42.770Z,33.00
2018-08-07T07:10:11.812Z,32.80
2018-08-07T07:12:40.453Z,33.00
2018-08-07T07:15:10.498Z,33.20
2018-08-07T07:17:38.458Z,33.20
2018-08-07T07:20:11.392Z,32.90
2018-08-07T07:22:39.727Z,32.60
2018-08-07T07:25:08.363Z,32.10
2018-08-07T07:27:36.370Z,31.80
2018-08-07T07:30:13.531Z,31.40
2018-08-07T07:32:41.954Z,31.40
2018-08-07T07:35:09.936Z,31.40
2018-08-07T07:37:37.922Z,31.30
2018-08-07T07:40:06.303Z,31.10
2018-08-07T07:42:35.077Z,31.00
2018-08-07T07:45:04.175Z,31.00
2018-08-07T07:47:32.558Z,30.90
2018-08-07T07:50:00.355Z,30.90
2018-08-07T07:52:28.611Z,30.70
2018-08-07T07:54:56.661Z,30.60
2018-08-07T07:57:25.205Z,30.30
2018-08-07T07:59:53.337Z,30.40
2018-08-07T08:02:21.347Z,30.50
2018-08-07T08:04:49.319Z,30.60
2018-08-07T08:07:17.839Z,30.50
2018-08-07T08:09:45.888Z,30.40
2018-08-07T08:12:13.974Z,30.40
2018-08-07T08:14:42.175Z,30.50
2018-08-07T08:17:10.765Z,30.40
2018-08-07T08:19:38.884Z,30.40
2018-08-07T08:22:07.356Z,30.40
2018-08-07T08:24:35.311Z,30.40
2018-08-07T08:27:03.285Z,30.50
2018-08-07T08:29:31.492Z,30.50
2018-08-07T08:31:59.773Z,30.60
2018-08-07T08:34:27.778Z,30.50
2018-08-07T08:36:56.260Z,30.60
2018-08-07T08:39:25.229Z,30.50
2018-08-07T08:41:54.684Z,30.60
2018-08-07T08:44:23.065Z,30.60
2018-08-07T08:46:51.763Z,30.60
2018-08-07T08:49:19.846Z,30.60
2018-08-07T08:51:48.106Z,30.70
2018-08-07T08:54:16.367Z,30.80
2018-08-07T08:56:44.779Z,30.90
2018-08-07T08:59:12.861Z,31.00
2018-08-07T09:01:41.425Z,31.00
2018-08-07T09:04:09.596Z,31.10
2018-08-07T09:06:38.357Z,31.20
2018-08-07T09:09:09.835Z,31.30
2018-08-07T09:11:39.214Z,31.50
2018-08-07T09:14:08.466Z,31.70
2018-08-07T09:16:38.073Z,31.80
2018-08-07T09:19:06.379Z,32.10
2018-08-07T09:21:36.053Z,32.30
2018-08-07T09:24:04.722Z,32.60
2018-08-07T09:26:32.638Z,32.60
2018-08-07T09:29:01.436Z,32.70
2018-08-07T09:31:29.483Z,32.80
2018-08-07T09:33:58.461Z,32.90
2018-08-07T09:36:27.976Z,32.90
2018-08-07T09:38:56.075Z,33.00
2018-08-07T09:41:25.150Z,33.20
2018-08-07T09:43:54.894Z,33.30
2018-08-07T09:46:23.779Z,33.40
2018-08-07T09:48:54.275Z,33.60
2018-08-07T09:51:22.349Z,33.80
2018-08-07T09:53:50.673Z,33.80
2018-08-07T09:56:19.338Z,33.80
2018-08-07T09:58:47.862Z,33.80
2018-08-07T10:01:21.606Z,33.70
2018-08-07T10:03:49.518Z,33.80
2018-08-07T10:06:17.600Z,33.60
2018-08-07T10:08:46.110Z,33.50
2018-08-07T10:11:14.517Z,33.60
2018-08-07T10:13:43.624Z,33.60
2018-08-07T10:16:12.224Z,33.60
2018-08-07T10:18:40.985Z,33.60
2018-08-07T10:21:09.166Z,33.60
2018-08-07T10:23:37.780Z,33.80
2018-08-07T10:26:06.340Z,33.80
2018-08-07T10:28:35.533Z,33.90
2018-08-07T10:31:08.712Z,34.00
2018-08-07T10:33:37.928Z,34.20
2018-08-07T10:36:07.931Z,34.20
2018-08-07T10:38:36.561Z,34.10
2018-08-07T10:41:05.350Z,34.10
2018-08-07T10:43:33.951Z,34.10
2018-08-07T10:46:03.353Z,34.20
2018-08-07T10:48:32.942Z,34.30
2018-08-07T10:51:01.653Z,34.50
2018-08-07T10:53:30.151Z,34.50
2018-08-07T10:55:58.848Z,34.50
2018-08-07T10:58:27.484Z,34.70
2018-08-07T11:00:57.624Z,34.90
2018-08-07T11:03:25.821Z,34.90
2018-08-07T11:05:54.255Z,34.90
2018-08-07T11:08:22.646Z,34.80
2018-08-07T11:10:51.615Z,34.80
2018-08-07T11:13:20.520Z,34.80
2018-08-07T11:15:49.532Z,34.70
2018-08-07T11:18:18.447Z,34.70
2018-08-07T11:20:48.552Z,34.70
2018-08-07T11:23:17.356Z,34.50
2018-08-07T11:25:45.482Z,34.50
2018-08-07T11:28:14.928Z,34.60
2018-08-07T11:30:44.089Z,34.70
2018-08-07T11:33:13.879Z,34.90
2018-08-07T11:35:42.438Z,34.90
2018-08-07T11:38:10.859Z,35.10
2018-08-07T11:40:39.628Z,35.00
2018-08-07T11:43:09.169Z,35.10
2018-08-07T11:45:38.108Z,35.00
2018-08-07T11:48:06.164Z,34.90
2018-08-07T11:53:03.584Z,35.10
2018-08-07T11:55:32.022Z,35.00
2018-08-07T11:58:00.465Z,35.10
2018-08-07T12:00:35.214Z,35.10
2018-08-07T12:03:04.591Z,35.20
2018-08-07T12:05:32.874Z,35.20
2018-08-07T12:08:03.450Z,35.20
2018-08-07T12:10:31.415Z,35.10
2018-08-07T12:13:01.021Z,35.00
2018-08-07T12:15:29.826Z,35.20
2018-08-07T12:18:00.279Z,35.00
2018-08-07T12:20:28.467Z,35.00
2018-08-07T12:22:56.759Z,35.10
2018-08-07T12:25:25.480Z,35.20
2018-08-07T12:30:23.138Z,35.30
2018-08-07T12:32:51.782Z,35.30
2018-08-07T12:35:19.958Z,35.30
2018-08-07T12:37:50.011Z,35.20
2018-08-07T12:40:21.792Z,35.20
2018-08-07T12:42:51.427Z,35.20
2018-08-07T12:45:19.351Z,35.20
2018-08-07T12:47:48.377Z,35.10
2018-08-07T12:50:17.450Z,35.00
2018-08-07T12:52:45.415Z,34.80
2018-08-07T12:55:14.953Z,34.80
2018-08-07T12:57:43.366Z,34.90
2018-08-07T13:00:15.939Z,34.80
2018-08-07T13:02:44.762Z,34.60
2018-08-07T13:05:13.109Z,34.50
2018-08-07T13:07:41.151Z,34.30
2018-08-07T13:10:12.058Z,34.20
2018-08-07T13:12:41.104Z,34.30
2018-08-07T13:15:10.791Z,34.40
2018-08-07T13:17:39.043Z,34.50
2018-08-07T13:20:08.338Z,34.60
2018-08-07T13:22:37.266Z,34.50
2018-08-07T13:25:06.563Z,34.50
2018-08-07T13:27:35.077Z,34.70
2018-08-07T13:30:04.574Z,34.90
2018-08-07T13:32:32.374Z,35.10
2018-08-07T13:35:00.717Z,35.20
2018-08-07T13:37:28.556Z,35.20
2018-08-07T13:39:56.884Z,35.20
2018-08-07T13:42:25.842Z,35.30
2018-08-07T13:44:53.901Z,35.30
2018-08-07T13:47:22.283Z,35.20
2018-08-07T13:49:50.332Z,35.10
2018-08-07T13:52:19.227Z,35.00
2018-08-07T13:54:47.239Z,34.90
2018-08-07T13:57:15.426Z,34.60
2018-08-07T13:59:43.681Z,34.50
2018-08-07T14:02:12.616Z,34.40
2018-08-07T14:04:40.977Z,34.30
2018-08-07T14:07:08.984Z,34.20
2018-08-07T14:09:37.448Z,34.00
2018-08-07T14:12:06.085Z,34.00
2018-08-07T14:14:35.173Z,33.80
2018-08-07T14:17:03.357Z,33.80
2018-08-07T14:19:32.532Z,33.90
2018-08-07T14:22:00.871Z,34.00
2018-08-07T14:24:29.367Z,34.00
2018-08-07T14:26:57.422Z,34.00
2018-08-07T14:29:26.087Z,33.90
2018-08-07T14:31:54.169Z,33.90
2018-08-07T14:36:51.777Z,33.80
2018-08-07T14:39:19.976Z,33.80
2018-08-07T14:41:48.150Z,33.90
2018-08-07T14:44:15.987Z,33.90
2018-08-07T14:46:44.347Z,33.90
2018-08-07T14:49:12.275Z,33.80
2018-08-07T14:51:40.351Z,33.60
2018-08-07T14:54:08.205Z,33.40
2018-08-07T14:56:37.604Z,33.20
2018-08-07T14:59:06.526Z,33.20
2018-08-07T15:01:37.125Z,33.10
2018-08-07T15:04:05.402Z,32.70
2018-08-07T15:06:33.515Z,32.50
2018-08-07T15:09:02.535Z,32.40
2018-08-07T15:11:30.649Z,32.30
2018-08-07T15:13:59.081Z,32.30
2018-08-07T15:16:27.464Z,32.40
2018-08-07T15:18:55.659Z,32.30
2018-08-07T15:21:23.857Z,32.30
2018-08-07T15:23:51.974Z,32.20
2018-08-07T15:26:20.512Z,31.90
2018-08-07T15:28:48.991Z,31.70
2018-08-07T15:31:17.315Z,31.40
2018-08-07T15:33:45.494Z,31.10
2018-08-07T15:36:14.176Z,30.90
2018-08-07T15:38:42.783Z,30.80
2018-08-07T15:41:10.923Z,30.60
2018-08-07T15:43:39.126Z,30.40
2018-08-07T15:46:08.124Z,30.20
2018-08-07T15:48:37.487Z,30.10
2018-08-07T15:51:05.714Z,30.00
2018-08-07T15:53:33.814Z,29.90
2018-08-07T15:56:01.895Z,29.70
2018-08-07T16:00:58.171Z,29.50
2018-08-07T16:03:26.378Z,29.50
2018-08-07T16:05:54.433Z,29.40
2018-08-07T16:08:22.440Z,29.40
2018-08-07T16:10:50.592Z,29.40
2018-08-07T16:13:19.472Z,29.30
2018-08-07T16:15:47.447Z,29.30
2018-08-07T16:18:15.521Z,29.30
2018-08-07T16:20:43.651Z,29.20
2018-08-07T16:23:11.835Z,29.10
2018-08-07T16:25:40.336Z,29.10
2018-08-07T16:28:08.632Z,28.90
2018-08-07T16:30:36.789Z,28.80
2018-08-07T16:33:04.765Z,28.80
2018-08-07T16:35:33.167Z,28.80
2018-08-07T16:38:01.381Z,28.90
2018-08-07T16:40:30.632Z,28.70
2018-08-07T16:42:59.346Z,28.60
2018-08-07T16:45:27.422Z,28.50
2018-08-07T16:47:56.984Z,28.50
2018-08-07T16:50:32.247Z,28.40
2018-08-07T16:53:00.439Z,28.40
2018-08-07T16:55:29.510Z,28.30
2018-08-07T17:00:36.002Z,28.00
2018-08-07T17:03:06.018Z,27.90
2018-08-07T17:05:36.846Z,28.00
2018-08-07T17:08:05.558Z,28.10
2018-08-07T17:10:33.754Z,28.30
2018-08-07T17:13:12.163Z,28.50
2018-08-07T17:15:44.208Z,28.70
2018-08-07T17:18:13.436Z,28.70
2018-08-07T17:20:42.049Z,28.80
2018-08-07T17:23:11.162Z,28.80
2018-08-07T17:25:43.920Z,28.80
2018-08-07T17:28:12.357Z,28.80
2018-08-07T17:30:40.644Z,28.70
2018-08-07T17:33:08.770Z,28.60
2018-08-07T17:38:06.634Z,28.50
2018-08-07T17:40:35.294Z,28.50
2018-08-07T17:43:03.946Z,28.50
2018-08-07T17:45:32.273Z,28.60
2018-08-07T17:48:01.739Z,28.60
2018-08-07T17:50:30.165Z,28.70
2018-08-07T17:53:00.295Z,28.70
2018-08-07T17:55:28.903Z,28.70
2018-08-07T17:57:58.184Z,28.70
2018-08-07T18:00:27.697Z,28.40
2018-08-07T18:02:56.828Z,28.40
2018-08-07T18:05:25.204Z,28.30
2018-08-07T18:07:54.924Z,28.10
2018-08-07T18:10:24.496Z,28.00
2018-08-07T18:12:53.422Z,27.80
2018-08-07T18:15:22.649Z,27.70
2018-08-07T18:17:51.437Z,27.60
2018-08-07T18:20:24.345Z,27.50
2018-08-07T18:22:52.754Z,27.40
2018-08-07T18:25:21.436Z,27.30
2018-08-07T18:27:50.033Z,27.20
2018-08-07T18:30:21.014Z,27.00
2018-08-07T18:32:49.912Z,26.90
2018-08-07T18:35:20.342Z,26.80
2018-08-07T18:37:49.460Z,26.70
2018-08-07T18:40:18.826Z,26.60
2018-08-07T18:42:48.325Z,26.60
2018-08-07T18:45:25.905Z,26.40
2018-08-07T18:47:54.507Z,26.30
2018-08-07T18:50:24.120Z,26.20
2018-08-07T18:52:56.731Z,26.10
2018-08-07T18:55:26.902Z,25.90
2018-08-07T18:57:55.271Z,25.80
2018-08-07T19:00:25.059Z,25.60
2018-08-07T19:02:55.981Z,25.50
2018-08-07T19:05:25.192Z,25.40
2018-08-07T19:07:54.070Z,25.30
2018-08-07T19:10:23.543Z,25.20
2018-08-07T19:12:52.907Z,25.20
2018-08-07T19:15:21.505Z,25.10
2018-08-07T19:17:49.746Z,24.90
2018-08-07T19:20:20.307Z,24.80
2018-08-07T19:22:49.399Z,24.70
2018-08-07T19:25:19.592Z,24.60
2018-08-07T19:27:47.945Z,24.50
2018-08-07T19:30:19.853Z,24.30
2018-08-07T19:32:48.132Z,24.10
2018-08-07T19:35:16.160Z,24.00
2018-08-07T19:40:13.970Z,23.70
2018-08-07T19:42:42.203Z,23.60
2018-08-07T19:45:11.590Z,23.50
2018-08-07T19:47:41.322Z,23.50
2018-08-07T19:50:10.971Z,23.30
2018-08-07T19:52:40.509Z,23.20
2018-08-07T19:55:16.677Z,23.20
2018-08-07T19:57:44.778Z,23.10
2018-08-07T20:00:17.568Z,22.90
2018-08-07T20:02:46.564Z,22.80
2018-08-07T20:05:15.164Z,22.70
2018-08-07T20:07:46.007Z,22.60
2018-08-07T20:10:15.683Z,22.50
2018-08-07T20:12:45.089Z,22.40
2018-08-07T20:15:17.053Z,22.30
2018-08-07T20:17:46.400Z,22.20
2018-08-07T20:20:14.326Z,22.10
2018-08-07T20:22:43.894Z,22.00
2018-08-07T20:25:12.259Z,21.90
2018-08-07T20:27:40.729Z,21.80
2018-08-07T20:30:13.638Z,21.70
2018-08-07T20:32:43.161Z,21.70
2018-08-07T20:35:11.392Z,21.50
2018-08-07T20:37:39.511Z,21.50
2018-08-07T20:40:25.346Z,21.40
2018-08-07T20:42:55.443Z,21.40
2018-08-07T20:45:24.058Z,21.30
2018-08-07T20:47:52.754Z,21.30
2018-08-07T20:50:24.172Z,21.20
2018-08-07T20:52:52.864Z,21.20
2018-08-07T20:55:21.213Z,21.10
2018-08-07T20:57:49.319Z,21.10
2018-08-07T21:00:22.731Z,21.00
2018-08-07T21:02:51.053Z,20.90
2018-08-07T21:05:19.196Z,20.90
2018-08-07T21:07:47.385Z,20.80
2018-08-07T21:10:17.495Z,20.70
2018-08-07T21:12:46.298Z,20.60
2018-08-07T21:15:14.571Z,20.50
2018-08-07T21:22:41.025Z,20.30
2018-08-07T21:25:12.521Z,20.20
2018-08-07T21:27:40.823Z,20.20
2018-08-07T21:30:12.322Z,20.10
2018-08-07T21:32:40.906Z,20.10
2018-08-07T21:35:09.964Z,20.00
2018-08-07T21:37:38.174Z,19.90
2018-08-07T21:40:07.742Z,19.80
2018-08-07T21:42:36.735Z,19.80
2018-08-07T21:45:05.179Z,19.80
2018-08-07T21:47:33.182Z,19.70
2018-08-07T21:50:01.207Z,19.70
2018-08-07T21:52:30.333Z,19.70
2018-08-07T21:54:59.275Z,19.60
2018-08-07T21:57:27.454Z,19.60
2018-08-07T21:59:55.298Z,19.50
2018-08-07T22:02:23.516Z,19.40
2018-08-07T22:04:51.595Z,19.40
2018-08-07T22:07:19.751Z,19.30
2018-08-07T22:09:48.295Z,19.30
2018-08-07T22:12:17.664Z,19.30
2018-08-07T22:14:47.942Z,19.30
2018-08-07T22:17:16.352Z,19.20
2018-08-07T22:19:44.179Z,19.20
2018-08-07T22:22:12.261Z,19.10
2018-08-07T22:24:40.638Z,19.10
2018-08-07T22:27:08.563Z,19.10
2018-08-07T22:29:37.579Z,19.00
2018-08-07T22:32:06.129Z,19.00
2018-08-07T22:34:34.333Z,19.00
2018-08-07T22:37:02.534Z,18.90
2018-08-07T22:39:30.951Z,18.80
2018-08-07T22:41:59.177Z,18.80
2018-08-07T22:44:27.332Z,18.70
2018-08-07T22:46:55.378Z,18.70
2018-08-07T22:49:23.959Z,18.60
2018-08-07T22:51:52.406Z,18.60
2018-08-07T22:54:20.268Z,18.50
2018-08-07T22:56:48.279Z,18.50
2018-08-07T22:59:16.276Z,18.50
2018-08-07T23:01:44.006Z,18.50
2018-08-07T23:04:19.053Z,18.50
2018-08-07T23:06:47.622Z,18.50
2018-08-07T23:09:15.507Z,18.50
2018-08-07T23:14:12.336Z,18.40
2018-08-07T23:16:40.527Z,18.30
2018-08-07T23:19:08.602Z,18.30
2018-08-07T23:21:38.782Z,18.30
2018-08-07T23:24:06.823Z,18.20
2018-08-07T23:26:36.673Z,18.20
2018-08-07T23:29:04.654Z,18.10
2018-08-07T23:31:32.673Z,18.10
2018-08-07T23:34:00.675Z,18.10
2018-08-07T23:36:28.852Z,18.10
2018-08-07T23:38:56.801Z,18.00
2018-08-07T23:41:25.996Z,18.10
2018-08-07T23:43:54.170Z,18.10
2018-08-07T23:46:22.293Z,18.10
2018-08-07T23:48:50.459Z,18.10
2018-08-07T23:51:18.569Z,18.10
2018-08-07T23:53:46.800Z,18.10
2018-08-07T23:56:15.012Z,18.10
2018-08-07T23:58:43.239Z,18.10
